Aérodrome :
LOGIN :

S'inscrire | Disclaimer

   EN    FR    IT 

 










Légende :    VFR   VFR Marginal   IFR   IFR Intensif   IFR Très Intensif
Visi : 
Plafond : 
>= 8 km
>= 3000ft
5 à 8 km
1000 à 3000 ft
1500m à 5 km
500 à 1000 ft
800 à 1500m
200 à 500 ft
< 800m
< 200 ft
Symboles :   Orages  Brouillard  Fortes neiges  Fortes précipitations  Vent > 20 kt
SIGMETs :   Divers  Orages  Givrage  Turbulence  Onde Orograph.  Cendres Volcan.







- Altitude de l'aérodrome : 70 ft
- Code IATA : WBG


ETNS - Schleswig

DERNIER METAR :
  • 231920Z AUTO 29007KT 9999 // ////// 08/05 Q1012 ///

METARs EXPIRÉS :
  • 231820Z AUTO 31008KT 9999 // ////// 09/05 Q1011 ///
  • 231720Z AUTO 32010KT 9999 // ////// 10/05 Q1010 ///

Prévision TAF périmée.
Pas de NOTAMs connus pour ce terrain.
2 SIGMETs publiés pour la FIR Bremen (EDWW) :
 
Givrage fort
EDWW SIGMET 3 VALID 231927/232200 EDZH
EDWW BREMEN FIR SEV ICE OBS S OF N5240 AND E OF E01205 FL070/230 MOV ESE NC=
Turbulence forte
EDWW SIGMET 2 VALID 231730/232130 EDZH
EDWW BREMEN FIR SEV TURB FCST SE OF LINE N5202 E00856 - N5243 E01445 FL150/245 MOV E WKN=



MET'MAP, la Météo Aéronautique d'un coup d'oeil ! - Copyright ORBIFLY Décembre 2007 - Disclaimer

ORBIFLY MET'MAP TEAM :

Programmation & Développement : Alexandra Zaïnal
Conception & Développement : Baudouin d'Aumeries
Co-Programmation & Développement : Marc-Olivier Méhu
Soutien technique & logistique : Manuel Goepfert

Contact : metmap@orbifly.com




SOURCES & CREDITS :

   NOAA